Flight Track Log - Related Links

Times and Time Zones

All times are in EDT time to prevent confusion due to time zone crossing. See the CES5276 flight status page for this flight to view local times or setup timezone preferences in your user account.

Time Position Orientation Groundspeed Altitude Reporting Facility
EDT Latitude Longitude Course Direction KTS MPH feet Rate Location/Type
Thu 08:54:00 PM 36.2851 111.5176 115° Southeast  Level Estimated
Thu 08:55:00 PM 36.2352 111.6335 118° Southeast  Level Estimated
Thu 08:56:00 PM 36.1851 111.7492 118° Southeast  Level Estimated
Thu 08:57:00 PM 36.1349 111.8648 118° Southeast  Level Estimated
Thu 08:58:00 PM 36.0846 111.9802 118° Southeast  Level Estimated
Thu 08:59:00 PM 36.0342 112.0955 118° Southeast  Level Estimated
Thu 09:00:00 PM 35.9837 112.2106 118° Southeast  Level Estimated
Thu 09:01:00 PM 35.9331 112.3256 119° Southeast  Level Estimated
Thu 09:02:00 PM 35.8824 112.4405 119° Southeast  Level Estimated
Thu 09:03:00 PM 35.8316 112.5552 119° Southeast  Level Estimated
Thu 09:04:00 PM 35.7806 112.6697 119° Southeast  Level Estimated
Thu 09:05:00 PM 35.7295 112.7841 119° Southeast  Level Estimated
Thu 09:06:00 PM 35.6784 112.8984 119° Southeast  Level Estimated
Thu 09:07:00 PM 35.6271 113.0125 119° Southeast  Level Estimated
Thu 09:08:00 PM 35.5757 113.1264 119° Southeast  Level Estimated
Thu 09:09:00 PM 35.5242 113.2402 119° Southeast  Level Estimated
Thu 09:10:00 PM 35.4726 113.3539 119° Southeast  Level Estimated
Thu 09:11:00 PM 35.4209 113.4674 119° Southeast  Level Estimated
Thu 09:12:00 PM 35.3691 113.5808 119° Southeast  Level Estimated
Thu 09:13:00 PM 35.3172 113.6940 119° Southeast  Level Estimated
Thu 09:14:00 PM 35.2652 113.8071 119° Southeast  Level Estimated
Thu 09:15:00 PM 35.2131 113.9201 119° Southeast  Level Estimated
Thu 09:16:00 PM 35.1608 114.0329 120° Southeast  Level Estimated
Thu 09:17:00 PM 35.1085 114.1455 120° Southeast  Level Estimated
Thu 09:18:00 PM 35.0561 114.2580 120° Southeast  Level Estimated
Thu 09:19:00 PM 35.0035 114.3704 120° Southeast  Level Estimated
Thu 09:20:00 PM 34.9509 114.4826 120° Southeast  Level Estimated
Thu 09:21:00 PM 34.8981 114.5947 120° Southeast  Level Estimated
Thu 09:22:00 PM 34.8453 114.7066 120° Southeast  Level Estimated
Thu 09:23:00 PM 34.7923 114.8184 120° Southeast  Level Estimated
Thu 09:24:00 PM 34.7393 114.9300 120° Southeast  Level Estimated
Thu 09:25:00 PM 34.6861 115.0415 120° Southeast  Level Estimated
Thu 09:26:00 PM 34.6329 115.1529 120° Southeast  Level Estimated
Thu 09:27:00 PM 34.5795 115.2641 120° Southeast  Level Estimated
Thu 09:28:00 PM 34.5260 115.3752 120° Southeast  Level Estimated
Thu 09:29:00 PM 34.4725 115.4861 120° Southeast  Level Estimated
Thu 09:30:00 PM 34.4188 115.5969 120° Southeast  Level Estimated
Thu 09:31:00 PM 34.3651 115.7075 120° Southeast  Level Estimated
Thu 09:32:00 PM 34.3112 115.8180 121° Southeast  Level Estimated
Thu 09:33:00 PM 34.2572 115.9284 121° Southeast  Level Estimated
Thu 09:34:00 PM 34.2032 116.0386 121° Southeast  Level Estimated
Thu 09:35:00 PM 34.1490 116.1487 121° Southeast  Level Estimated
Thu 09:36:00 PM 34.0948 116.2586 121° Southeast  Level Estimated
Thu 09:37:00 PM 34.0404 116.3684 121° Southeast  Level Estimated
Thu 09:38:00 PM 33.9860 116.4780 121° Southeast  Level Estimated
Thu 09:39:00 PM 33.9314 116.5875 121° Southeast  Level Estimated
Thu 09:40:00 PM 33.8768 116.6969 121° Southeast  Level Estimated
Thu 09:41:00 PM 33.8220 116.8061 121° Southeast  Level Estimated
Thu 09:42:00 PM 33.7672 116.9152 121° Southeast  Level Estimated
Thu 09:43:00 PM 33.7123 117.0242 121° Southeast  Level Estimated
Thu 09:44:00 PM 33.6572 117.1330 121° Southeast  Level Estimated
Thu 09:45:00 PM 33.6021 117.2417 121° Southeast  Level Estimated
Thu 09:46:00 PM 33.5469 117.3502 121° Southeast  Level Estimated
Thu 09:47:00 PM 33.4916 117.4586 121° Southeast  Level Estimated
Thu 09:48:00 PM 33.4362 117.5668 121° Southeast  Level Estimated
Thu 09:49:00 PM 33.3807 117.6750 122° Southeast  Level Estimated
Thu 09:50:00 PM 33.3251 117.7829 122° Southeast  Level Estimated
Thu 09:51:00 PM 33.2694 117.8908 122° Southeast  Level Estimated
Thu 09:52:00 PM 33.2136 117.9985 122° Southeast  Level Estimated
Thu 09:53:00 PM 33.1577 118.1061 122° Southeast  Level Estimated
Thu 09:54:00 PM 33.1018 118.2135 122° Southeast  Level Estimated
Thu 09:55:00 PM 33.0457 118.3208 122° Southeast  Level Estimated
Thu 09:56:00 PM 32.9896 118.4279 122° Southeast  Level Estimated
Thu 09:57:00 PM 32.9333 118.5350 122° Southeast  Level Estimated
Thu 09:58:00 PM 32.8770 118.6418 122° Southeast  Level Estimated
Thu 09:59:00 PM 32.8206 118.7486 122° Southeast  Level Estimated
Thu 10:00:00 PM 32.7641 118.8552 122° Southeast  Level Estimated
Thu 10:01:00 PM 32.7075 118.9617 122° Southeast  Level Estimated
Thu 10:02:00 PM 32.6508 119.0680 122° Southeast  Level Estimated
Thu 10:03:00 PM 32.5940 119.1742 122° Southeast  Level Estimated
Thu 10:04:00 PM 32.5371 119.2803 122° Southeast  Level Estimated
Thu 10:05:00 PM 32.4802 119.3862 122° Southeast  Level Estimated
Thu 10:06:00 PM 32.4231 119.4920 123° Southeast  Level Estimated
Thu 10:07:00 PM 32.3660 119.5977 123° Southeast  Level Estimated
Thu 10:08:00 PM 32.3088 119.7032 123° Southeast  Level Estimated
Thu 10:09:00 PM 32.2515 119.8086 123° Southeast  Level Estimated
Thu 10:10:00 PM 32.1941 119.9139 123° Southeast  Level Estimated
Thu 10:11:00 PM 32.1366 120.0191 123° Southeast  Level Estimated
Thu 10:12:00 PM 32.0790 120.1241 123° Southeast  Level Estimated
Thu 10:13:00 PM 32.0213 120.2289 123° Southeast  Level Estimated
Thu 10:14:00 PM 31.9636 120.3337 123° Southeast  Level Estimated
Thu 10:15:00 PM 31.9058 120.4383 123° Southeast  Level Estimated
Thu 10:16:00 PM 31.8478 120.5428 123° Southeast  Level Estimated
Thu 10:17:00 PM 31.7898 120.6471 123° Southeast  Level Estimated
Thu 10:18:00 PM 31.7318 120.7513 123° Southeast  Level Estimated
Thu 10:19:00 PM 31.6736 120.8554 123° Southeast  Level Estimated
Thu 10:20:00 PM 31.6153 120.9594 123° Southeast  Level Estimated
Thu 10:21:00 PM 31.5570 121.0632 123° Southeast  Level Estimated
Thu 10:22:00 PM 31.4986 121.1669 123° Southeast  Level Estimated
Thu 10:23:00 PM 31.4400 121.2704 123° Southeast  Level Estimated
Thu 10:24:00 PM 31.3815 121.3739 124° Southeast  Level Estimated
Thu 10:25:00 PM 31.3228 121.4772 124° Southeast  Level Estimated
Thu 10:26:00 PM 31.2640 121.5804 124° Southeast  Level Estimated
Thu 10:27:00 PM 31.2052 121.6834 124° Southeast  Level Estimated
Thu 10:28:00 PM 31.1462 121.7863 124° Southeast  Level Estimated
Thu 10:29:00 PM 31.1428 121.7924 124° Southeast  Level Estimated
Thu 10:30:00 PM 31.1428 121.7924 221° Southwest  Level Estimated
Thu 10:31:00 PM 31.1428 121.7924 221° Southwest  Level Estimated
Thu 10:32:00 PM 31.1428 121.7924 221° Southwest  Level Estimated
Thu 10:33:00 PM 31.1428 121.7924 221° Southwest  Level Estimated
Thu 10:34:00 PM 31.1428 121.7924 221° Southwest  Level Estimated
Thu 10:35:00 PM 31.1428 121.7924 221° Southwest  Level Estimated
Thu 10:36:00 PM 31.1428 121.7924 221° Southwest  Level Estimated

Login

Don't have an account? Register now (free) for customized features, flight alerts, and more!